Omskiy-107 — UBWE3 — position and weather

sailwx.info

Track history (hours):
 
Tides and Currents Weather Stations Pressure Air Temp Water Temp Dewpoint Dewpoint Depression Visibility Wind Speed Wind Dir Waves Ship Positions

Omskiy-107

Last reported at 2017-Oct-05 01:15 UTC. Time now 2017-Oct-22 06:51 UTC.
Position N 45°33' E 036°46'.
Warning: this ship's position is 17 days out of date.

Length 108 m; draft 3.3 m.

Type: Cargo ship. MMSI: 273343220.

Date/timePositionNaut miles runAvg speedWind from/ knotsBaromVisibWave heightAir tempDewpointWater temp
2017-Oct-05 01:15N 45°33' E 036°46'4 7.9
2017-Oct-05 00:41N 45°29' E 036°43'2 7.9
2017-Oct-05 00:29N 45°27' E 036°42'4 7.8
2017-Oct-05 00:01N 45°24' E 036°41'4 7.0
2017-Oct-04 23:30N 45°21' E 036°38'4 8.1
2017-Oct-04 23:01N 45°19' E 036°33'5 7.1
2017-Oct-04 22:20N 45°16' E 036°28'2 5.9
2017-Oct-04 22:00N 45°14' E 036°29'2 4.1
2017-Oct-04 21:30N 45°12' E 036°30'1 1.2
2017-Oct-04 20:26N 45°11' E 036°30'0 0.0
2017-Oct-04 18:05N 45°11' E 036°30'0 0.1
2017-Oct-04 18:00N 45°11' E 036°30'0 0.0
2017-Oct-04 15:59N 45°11' E 036°30'0 0.2
2017-Oct-04 15:26N 45°11' E 036°30'  
Track history (hours):
 
Tides and Currents Weather Stations Pressure Air Temp Water Temp Dewpoint Dewpoint Depression Visibility Wind Speed Wind Dir Waves Ship Positions

Omskiy-107

Last reported at 2017-Oct-05 01:15 UTC. Time now 2017-Oct-22 06:51 UTC.
Position N 45°33' E 036°46'.
Warning: this ship's position is 17 days out of date.

Length 108 m; draft 3.3 m.

Type: Cargo ship. MMSI: 273343220.

Date/timePositionNaut miles runAvg speedWind from/ knotsBaromVisibWave heightAir tempDewpointWater temp
2017-Oct-05 01:15N 45°33' E 036°46'4 7.9
2017-Oct-05 00:41N 45°29' E 036°43'2 7.9
2017-Oct-05 00:29N 45°27' E 036°42'4 7.8
2017-Oct-05 00:01N 45°24' E 036°41'4 7.0
2017-Oct-04 23:30N 45°21' E 036°38'4 8.1
2017-Oct-04 23:01N 45°19' E 036°33'5 7.1
2017-Oct-04 22:20N 45°16' E 036°28'2 5.9
2017-Oct-04 22:00N 45°14' E 036°29'2 4.1
2017-Oct-04 21:30N 45°12' E 036°30'1 1.2
2017-Oct-04 20:26N 45°11' E 036°30'0 0.0
2017-Oct-04 18:05N 45°11' E 036°30'0 0.1
2017-Oct-04 18:00N 45°11' E 036°30'0 0.0
2017-Oct-04 15:59N 45°11' E 036°30'0 0.2
2017-Oct-04 15:26N 45°11' E 036°30'  

Dump ship's entire track history